Time;durP1;ratioP1;P1;durP2;ratioP2;P2;SDS_P1;SDS_P2;PMS_P1;PMS_P2;Temp;Humidity;BMP_temperature;BMP_pressure;BME280_temperature;BME280_humidity;BME280_pressure;Samples;Min_cycle;Max_cycle;Signal;HPM_P1;HPM_P2
2021/05/15 03:01:47;;;;;;;4.95;4.75;;;9.00;99.90;;;;;;5749244;22;93600;-85
2021/05/15 03:04:13;;;;;;;5.45;5.20;;;9.00;99.90;;;;;;4921344;28;92916;-86
2021/05/15 03:06:39;;;;;;;8.40;8.02;;;;;;;;;;4923332;28;92563;-87
2021/05/15 03:09:05;;;;;;;6.43;5.80;;;8.90;99.90;;;;;;4924111;28;91286;-85
2021/05/15 03:11:30;;;;;;;5.53;5.32;;;8.90;99.90;;;;;;4928580;28;91318;-85
2021/05/15 03:13:56;;;;;;;7.70;7.40;;;8.90;99.90;;;;;;4932115;28;92547;-86
2021/05/15 03:16:22;;;;;;;7.60;7.18;;;8.90;99.90;;;;;;4941570;28;92306;-86
2021/05/15 03:18:47;;;;;;;8.70;8.30;;;8.90;99.90;;;;;;4939991;28;91195;-86
2021/05/15 03:21:13;;;;;;;8.45;7.88;;;8.90;99.90;;;;;;4924267;28;91733;-85
2021/05/15 03:23:39;;;;;;;6.43;6.13;;;8.90;99.90;;;;;;4924152;28;92402;-85
2021/05/15 03:26:04;;;;;;;6.47;6.05;;;8.90;99.90;;;;;;4934379;28;92022;-85
2021/05/15 03:28:30;;;;;;;10.00;9.50;;;;;;;;;;4930034;28;92898;-85
2021/05/15 03:30:56;;;;;;;6.35;6.05;;;8.80;99.90;;;;;;4924339;28;92135;-86
2021/05/15 03:33:22;;;;;;;6.05;5.75;;;8.80;99.90;;;;;;4923053;28;92543;-86
2021/05/15 03:35:47;;;;;;;6.63;6.32;;;8.70;99.90;;;;;;4923827;28;92451;-85
2021/05/15 03:38:13;;;;;;;6.90;6.60;;;8.70;99.90;;;;;;4922460;28;91988;-87
2021/05/15 03:40:38;;;;;;;7.15;6.75;;;8.70;99.90;;;;;;4915538;28;91856;-86
2021/05/15 03:43:04;;;;;;;6.85;6.45;;;8.60;99.90;;;;;;4910178;28;91856;-86
2021/05/15 03:45:30;;;;;;;7.40;6.90;;;8.60;99.90;;;;;;4938010;28;92991;-84
2021/05/15 03:47:56;;;;;;;7.72;7.32;;;8.50;99.90;;;;;;4942592;28;91567;-86
2021/05/15 03:50:22;;;;;;;9.80;9.32;;;9.00;99.90;;;;;;4932672;28;91726;-86
2021/05/15 03:52:49;;;;;;;7.60;7.18;;;8.40;99.90;;;;;;4926136;28;93255;-85
2021/05/15 03:55:15;;;;;;;8.15;7.65;;;8.50;99.90;;;;;;4927219;28;92076;-85
2021/05/15 03:57:41;;;;;;;6.78;6.38;;;8.40;99.90;;;;;;4932396;28;92087;-84
2021/05/15 04:00:09;;;;;;;6.32;6.03;;;8.40;99.90;;;;;;4929529;28;91293;-84
2021/05/15 04:02:35;;;;;;;6.03;5.63;;;8.40;99.90;;;;;;4915502;28;92555;-85
2021/05/15 04:05:01;;;;;;;8.23;7.63;;;8.30;99.90;;;;;;4920026;28;95442;-84
2021/05/15 04:07:34;;;;;;;9.88;8.25;;;8.30;99.90;;;;;;4925455;28;91706;-84
2021/05/15 04:10:00;;;;;;;6.28;5.88;;;8.30;99.90;;;;;;4924420;28;90876;-84
2021/05/15 04:12:33;;;;;;;7.20;6.80;;;8.30;99.90;;;;;;4924127;28;92128;-84
2021/05/15 04:15:10;;;;;;;7.50;7.10;;;8.30;99.90;;;;;;4937289;28;92528;-84
2021/05/15 04:17:36;;;;;;;7.32;6.93;;;8.20;99.90;;;;;;4924603;28;92468;-84
2021/05/15 04:20:04;;;;;;;6.60;6.10;;;8.30;99.90;;;;;;4905812;28;92698;-86
2021/05/15 04:22:30;;;;;;;6.22;5.72;;;8.20;99.90;;;;;;4915383;28;92685;-84
2021/05/15 04:24:59;;;;;;;9.27;8.77;;;8.20;99.90;;;;;;4919408;28;94836;-86
2021/05/15 04:27:25;;;;;;;8.75;8.35;;;8.20;99.90;;;;;;4937647;28;91832;-85
2021/05/15 04:29:50;;;;;;;10.43;9.90;;;8.20;99.90;;;;;;4923881;28;91827;-85
2021/05/15 04:32:16;;;;;;;9.80;9.30;;;8.20;99.90;;;;;;4912171;28;92712;-87
2021/05/15 04:34:42;;;;;;;10.55;10.05;;;8.20;99.90;;;;;;4921745;28;92261;-84
2021/05/15 04:37:08;;;;;;;8.40;7.90;;;8.20;99.90;;;;;;4916231;28;92524;-84
2021/05/15 04:39:34;;;;;;;10.02;9.52;;;8.20;99.90;;;;;;4925279;28;91243;-85
2021/05/15 04:42:01;;;;;;;9.35;8.68;;;8.20;99.90;;;;;;4934856;28;93379;-85
2021/05/15 04:44:28;;;;;;;10.10;9.35;;;8.30;99.90;;;;;;4919658;28;93290;-85
2021/05/15 04:46:53;;;;;;;9.13;8.70;;;8.30;99.90;;;;;;4910701;28;92340;-85
2021/05/15 04:49:20;;;;;;;11.25;10.65;;;;;;;;;;4923444;28;91409;-86
2021/05/15 04:51:45;;;;;;;8.20;7.70;;;8.40;99.90;;;;;;4920348;28;92512;-87
2021/05/15 04:54:11;;;;;;;10.63;10.13;;;8.50;99.90;;;;;;4924241;28;92205;-87
2021/05/15 04:56:37;;;;;;;6.28;5.80;;;8.50;99.90;;;;;;4909583;28;91300;-86
2021/05/15 04:59:04;;;;;;;6.90;6.50;;;8.60;99.90;;;;;;4927592;28;90548;-85
2021/05/15 05:01:30;;;;;;;8.55;8.05;;;8.60;99.90;;;;;;4924387;28;91695;-83
2021/05/15 05:03:56;;;;;;;5.85;5.55;;;8.70;99.90;;;;;;4923319;28;92097;-85
2021/05/15 05:06:22;;;;;;;7.05;6.65;;;8.70;99.90;;;;;;4916843;28;93094;-84
2021/05/15 05:08:47;;;;;;;8.75;8.35;;;8.70;99.90;;;;;;4917949;28;96029;-83
2021/05/15 05:11:13;;;;;;;8.10;7.50;;;8.80;99.90;;;;;;4902392;28;94072;-84
2021/05/15 05:13:39;;;;;;;7.30;6.85;;;8.80;99.90;;;;;;4922398;28;92062;-85
2021/05/15 05:16:05;;;;;;;6.82;6.43;;;8.90;99.90;;;;;;4922527;28;92008;-86
2021/05/15 05:18:31;;;;;;;5.90;5.60;;;9.00;99.90;;;;;;4906133;28;91923;-84
2021/05/15 05:20:57;;;;;;;6.72;6.25;;;9.00;99.90;;;;;;4920615;28;93233;-85
2021/05/15 05:23:24;;;;;;;5.40;5.10;;;9.00;99.90;;;;;;4923604;28;91643;-85
2021/05/15 05:25:50;;;;;;;5.75;5.30;;;9.10;99.90;;;;;;4920505;28;92101;-84
2021/05/15 05:28:20;;;;;;;5.65;5.40;;;9.10;99.90;;;;;;4919019;28;91398;-84
2021/05/15 05:30:46;;;;;;;5.97;5.68;;;9.30;99.90;;;;;;4918871;28;93273;-87
2021/05/15 05:33:12;;;;;;;4.93;4.72;;;9.40;99.90;;;;;;4913827;28;96264;-87
2021/05/15 05:35:38;;;;;;;5.30;5.00;;;9.50;99.90;;;;;;4921359;28;92017;-85
2021/05/15 05:38:04;;;;;;;5.22;4.93;;;9.70;99.90;;;;;;4926920;28;91282;-87
2021/05/15 05:40:31;;;;;;;6.18;5.88;;;9.80;99.90;;;;;;4914599;28;92261;-85
2021/05/15 05:42:57;;;;;;;5.80;5.50;;;9.90;99.90;;;;;;4921529;28;92396;-86
2021/05/15 05:45:22;;;;;;;6.05;5.65;;;9.90;99.90;;;;;;4921854;28;91349;-84
2021/05/15 05:47:48;;;;;;;5.53;5.32;;;10.00;99.90;;;;;;4918083;28;92414;-84
2021/05/15 05:50:14;;;;;;;5.15;4.85;;;10.10;99.90;;;;;;4921800;28;92406;-85
2021/05/15 05:52:40;;;;;;;5.05;4.75;;;10.10;99.90;;;;;;4923579;28;91939;-86
2021/05/15 05:55:07;;;;;;;4.95;4.65;;;10.30;99.90;;;;;;4926559;28;92448;-85
2021/05/15 05:57:33;;;;;;;5.13;4.88;;;10.30;99.90;;;;;;4922138;28;91330;-84
2021/05/15 05:59:59;;;;;;;5.40;5.10;;;10.30;99.90;;;;;;4923779;28;92215;-87
2021/05/15 06:02:25;;;;;;;6.60;6.28;;;10.40;99.90;;;;;;4929117;28;91900;-85
2021/05/15 06:04:51;;;;;;;4.88;4.50;;;10.60;99.90;;;;;;4923584;28;91205;-86
2021/05/15 06:07:17;;;;;;;5.75;5.50;;;10.80;99.90;;;;;;4928634;28;92228;-84
2021/05/15 06:09:43;;;;;;;6.15;5.75;;;10.90;99.90;;;;;;4923588;28;91807;-85
2021/05/15 06:12:12;;;;;;;5.18;4.97;;;11.00;99.90;;;;;;4918761;28;91902;-83
2021/05/15 06:14:39;;;;;;;5.20;5.00;;;11.20;99.90;;;;;;4920347;28;91361;-85
2021/05/15 06:17:05;;;;;;;5.25;5.05;;;11.30;99.90;;;;;;4920741;28;91408;-83
2021/05/15 06:19:31;;;;;;;7.63;7.22;;;11.40;99.90;;;;;;4911077;28;92579;-84
2021/05/15 06:21:57;;;;;;;8.10;7.70;;;11.50;99.90;;;;;;4918626;28;94309;-86
2021/05/15 06:24:23;;;;;;;13.20;12.65;;;11.60;99.90;;;;;;4919976;28;91887;-86
2021/05/15 06:26:49;;;;;;;6.43;6.13;;;11.60;99.90;;;;;;4923721;28;92589;-85
2021/05/15 06:29:15;;;;;;;7.07;6.78;;;11.70;99.90;;;;;;4920123;28;93484;-85
2021/05/15 06:31:40;;;;;;;5.28;4.90;;;11.70;99.90;;;;;;4927008;28;93793;-84
2021/05/15 06:34:07;;;;;;;7.18;6.88;;;11.80;99.90;;;;;;4920525;28;92599;-83
2021/05/15 06:36:33;;;;;;;7.53;7.18;;;11.80;99.90;;;;;;4923660;28;92814;-81
2021/05/15 06:38:59;;;;;;;8.88;8.48;;;11.90;99.90;;;;;;4923440;28;92253;-82
2021/05/15 06:41:24;;;;;;;8.55;8.07;;;12.00;99.90;;;;;;4923155;28;92548;-83
2021/05/15 06:43:51;;;;;;;10.93;10.43;;;12.00;99.90;;;;;;4921871;28;92248;-83
2021/05/15 06:46:17;;;;;;;6.85;6.55;;;12.10;99.90;;;;;;4927104;28;92393;-83
2021/05/15 06:48:43;;;;;;;9.90;9.50;;;12.50;99.90;;;;;;4917814;28;91451;-82
2021/05/15 06:51:08;;;;;;;5.78;5.57;;;12.30;99.90;;;;;;4920646;28;92305;-82
2021/05/15 06:53:34;;;;;;;9.30;8.90;;;;;;;;;;4919814;28;92655;-84
2021/05/15 06:56:00;;;;;;;10.20;9.65;;;12.80;99.90;;;;;;4910046;28;91788;-83
2021/05/15 06:58:26;;;;;;;7.20;6.70;;;12.90;99.90;;;;;;4923453;28;93542;-84
2021/05/15 07:00:52;;;;;;;6.03;5.50;;;13.10;99.90;;;;;;4927090;28;91895;-85
2021/05/15 07:03:17;;;;;;;6.00;5.70;;;13.30;99.90;;;;;;4926398;28;91361;-84
2021/05/15 07:05:43;;;;;;;6.45;6.15;;;13.40;99.90;;;;;;4921775;28;91510;-84
2021/05/15 07:08:10;;;;;;;8.80;8.35;;;13.50;99.90;;;;;;4919623;28;94023;-84
2021/05/15 07:10:36;;;;;;;7.88;7.22;;;13.50;99.90;;;;;;4925452;28;93385;-84
2021/05/15 07:13:01;;;;;;;6.22;6.00;;;13.50;99.90;;;;;;4922781;28;93369;-86
2021/05/15 07:15:27;;;;;;;10.73;10.27;;;13.60;99.90;;;;;;4929787;28;91532;-83
2021/05/15 07:17:53;;;;;;;8.45;8.05;;;13.50;99.90;;;;;;4922271;28;92404;-83
2021/05/15 07:20:19;;;;;;;7.95;7.63;;;;;;;;;;4915248;28;92661;-85
2021/05/15 07:22:45;;;;;;;8.95;8.55;;;13.40;99.90;;;;;;4923612;28;91809;-83
2021/05/15 07:25:12;;;;;;;11.63;11.13;;;13.40;99.90;;;;;;4924899;28;91391;-85
2021/05/15 07:27:39;;;;;;;9.52;9.13;;;13.40;99.90;;;;;;4922178;28;92680;-83
2021/05/15 07:30:06;;;;;;;9.70;9.30;;;13.60;99.90;;;;;;4927253;28;92110;-84
2021/05/15 07:32:32;;;;;;;10.50;10.00;;;13.60;99.90;;;;;;4934733;28;92836;-82
2021/05/15 07:34:58;;;;;;;9.80;9.40;;;13.70;98.70;;;;;;4926464;28;91340;-84
2021/05/15 07:37:24;;;;;;;11.35;10.95;;;;;;;;;;4919733;28;92294;-83
2021/05/15 07:39:52;;;;;;;17.85;17.05;;;13.50;98.10;;;;;;4924649;28;91710;-85
2021/05/15 07:42:17;;;;;;;22.85;21.95;;;13.70;97.80;;;;;;4925814;28;91604;-82
2021/05/15 07:44:43;;;;;;;46.22;44.33;;;13.80;97.40;;;;;;4925101;28;91743;-83
2021/05/15 07:47:09;;;;;;;22.50;21.65;;;13.80;97.10;;;;;;4927568;28;92166;-83
2021/05/15 07:49:35;;;;;;;12.85;12.35;;;;;;;;;;4928456;28;92472;-85
2021/05/15 07:52:01;;;;;;;11.60;11.18;;;14.30;96.00;;;;;;4899329;28;93737;-86
2021/05/15 07:54:27;;;;;;;17.23;16.50;;;13.90;95.50;;;;;;4924421;28;91963;-84
2021/05/15 07:56:54;;;;;;;19.33;18.35;;;14.30;96.40;;;;;;4925658;28;93137;-84
2021/05/15 07:59:21;;;;;;;14.15;13.65;;;15.10;95.10;;;;;;4923167;28;92262;-84
2021/05/15 08:01:47;;;;;;;14.35;13.82;;;15.00;94.40;;;;;;4926320;28;91268;-84
2021/05/15 08:04:12;;;;;;;18.20;17.52;;;15.40;95.70;;;;;;4922841;28;91225;-86
2021/05/15 08:06:38;;;;;;;10.80;10.40;;;15.80;92.40;;;;;;4924546;28;92561;-83
2021/05/15 08:09:04;;;;;;;7.63;7.13;;;16.10;92.10;;;;;;4930843;28;91925;-88
2021/05/15 08:11:32;;;;;;;12.90;12.18;;;17.00;90.40;;;;;;4930951;28;91261;-84
2021/05/15 08:13:58;;;;;;;7.70;7.40;;;16.90;90.00;;;;;;4919743;28;91089;-85
2021/05/15 08:16:24;;;;;;;13.63;13.13;;;17.40;87.30;;;;;;4917263;28;93136;-83
2021/05/15 08:18:49;;;;;;;18.83;18.02;;;17.90;82.70;;;;;;4922257;28;92327;-84
2021/05/15 08:21:15;;;;;;;9.13;8.73;;;18.50;80.40;;;;;;4927414;28;93321;-83
2021/05/15 08:23:41;;;;;;;10.70;10.23;;;;;;;;;;4925942;28;91172;-84
2021/05/15 08:26:10;;;;;;;6.65;6.38;;;19.20;71.50;;;;;;4917043;28;91559;-85
2021/05/15 08:28:41;;;;;;;7.25;6.95;;;20.00;71.20;;;;;;4923546;28;93168;-85
2021/05/15 08:31:08;;;;;;;7.18;6.88;;;21.00;69.30;;;;;;4940270;28;91303;-85
2021/05/15 08:33:35;;;;;;;19.85;19.15;;;22.00;65.70;;;;;;4916882;28;91803;-85
2021/05/15 08:36:01;;;;;;;11.93;11.25;;;;;;;;;;4920176;28;92221;-85
2021/05/15 08:38:27;;;;;;;23.40;22.50;;;;;;;;;;4924293;28;92406;-86
2021/05/15 08:40:53;;;;;;;14.65;13.95;;;;;;;;;;4919205;28;91946;-85
2021/05/15 08:43:19;;;;;;;9.30;8.80;;;;;;;;;;4921285;28;91662;-86
2021/05/15 08:45:48;;;;;;;9.52;9.10;;;25.10;46.50;;;;;;4927567;28;93169;-85
2021/05/15 08:48:14;;;;;;;36.05;34.58;;;26.10;47.70;;;;;;4913865;28;92306;-87
2021/05/15 08:50:41;;;;;;;12.57;12.05;;;27.70;44.50;;;;;;4913265;28;91272;-86
2021/05/15 08:53:07;;;;;;;75.78;72.90;;;;;;;;;;4918415;28;91534;-85
2021/05/15 08:55:34;;;;;;;131.07;126.13;;;28.80;41.70;;;;;;4920962;28;93394;-85
2021/05/15 08:58:01;;;;;;;88.50;85.13;;;29.70;40.30;;;;;;4929461;28;91673;-88
2021/05/15 09:00:37;;;;;;;72.32;69.57;;;31.00;38.90;;;;;;4921390;28;92544;-88
2021/05/15 09:03:09;;;;;;;23.60;22.70;;;32.00;37.00;;;;;;4919680;28;90636;-87
2021/05/15 09:05:37;;;;;;;40.75;39.20;;;33.30;34.60;;;;;;4926516;28;92728;-85
2021/05/15 09:08:07;;;;;;;46.85;44.97;;;33.90;34.30;;;;;;4924362;28;91363;-86
2021/05/15 09:10:42;;;;;;;50.90;48.90;;;35.30;32.30;;;;;;5033818;28;81311;-86
2021/05/15 09:13:17;;;;;;;98.60;94.87;;;36.00;31.80;;;;;;5012076;28;82904;-85
2021/05/15 09:15:46;;;;;;;60.17;57.72;;;36.10;31.70;;;;;;5015175;28;83081;-85
2021/05/15 09:18:23;;;;;;;30.13;29.00;;;37.30;30.80;;;;;;5013570;28;82556;-86
2021/05/15 09:20:51;;;;;;;34.83;33.47;;;37.30;29.60;;;;;;5015653;28;84338;-85
2021/05/15 09:23:29;;;;;;;71.00;68.30;;;36.40;27.90;;;;;;5024084;28;82113;-86
2021/05/15 09:26:12;;;;;;;71.13;68.32;;;36.10;27.80;;;;;;5021562;28;82401;-86
2021/05/15 09:28:38;;;;;;;60.45;58.05;;;35.70;29.60;;;;;;5019743;28;83447;-85
2021/05/15 09:31:30;;;;;;;43.53;41.88;;;35.60;28.70;;;;;;5018977;28;81843;-85
2021/05/15 09:34:07;;;;;;;51.17;49.20;;;35.10;28.50;;;;;;5022444;28;83345;-85
2021/05/15 09:36:38;;;;;;;46.30;44.50;;;34.40;29.10;;;;;;5018640;28;84413;-85
2021/05/15 09:39:10;;;;;;;63.28;60.83;;;34.00;29.70;;;;;;5019240;28;81967;-86
2021/05/15 09:41:48;;;;;;;78.28;75.30;;;34.00;30.00;;;;;;5018361;28;82218;-84
2021/05/15 09:44:17;;;;;;;69.57;66.80;;;33.80;29.80;;;;;;5012182;28;82989;-86
2021/05/15 09:46:45;;;;;;;83.35;80.18;;;33.90;29.80;;;;;;5021889;28;82275;-85
2021/05/15 09:49:12;;;;;;;79.25;76.18;;;33.80;29.80;;;;;;5023767;28;82108;-84
2021/05/15 09:51:39;;;;;;;118.45;113.85;;;33.50;30.40;;;;;;5011927;28;84995;-84
2021/05/15 09:54:13;;;;;;;89.63;86.13;;;33.30;30.10;;;;;;5016291;28;85721;-84
2021/05/15 09:56:39;;;;;;;117.93;113.35;;;;;;;;;;5031518;28;88061;-84
2021/05/15 09:59:05;;;;;;;122.45;117.70;;;;;;;;;;5014295;28;84728;-85
2021/05/15 10:01:44;;;;;;;124.03;119.20;;;32.00;29.90;;;;;;5013988;28;84772;-84
2021/05/15 10:04:10;;;;;;;94.63;90.73;;;31.90;30.00;;;;;;5020033;28;84900;-84
2021/05/15 10:06:37;;;;;;;77.07;74.00;;;30.80;31.10;;;;;;5021010;28;85263;-85
2021/05/15 10:09:03;;;;;;;52.42;50.17;;;30.30;32.20;;;;;;5018633;28;81882;-85
2021/05/15 10:11:29;;;;;;;76.45;73.03;;;29.80;32.90;;;;;;5017919;28;82913;-85
2021/05/15 10:13:56;;;;;;;78.93;75.85;;;29.60;32.80;;;;;;5013378;28;82217;-85
2021/05/15 10:16:21;;;;;;;113.45;109.10;;;29.50;32.70;;;;;;5016842;28;82671;-85
2021/05/15 10:18:48;;;;;;;97.45;93.65;;;28.80;33.00;;;;;;5018999;28;85382;-85
2021/05/15 10:21:14;;;;;;;97.88;94.20;;;28.20;34.40;;;;;;5008988;28;82779;-85
2021/05/15 10:23:42;;;;;;;26.17;25.08;;;28.10;34.80;;;;;;5012728;28;82164;-85
2021/05/15 10:26:17;;;;;;;72.00;69.13;;;28.20;35.10;;;;;;5006411;28;82571;-85
2021/05/15 10:28:45;;;;;;;76.20;73.13;;;28.80;35.00;;;;;;5008977;28;82026;-85
2021/05/15 10:31:16;;;;;;;103.43;99.32;;;31.50;32.30;;;;;;4994275;28;82982;-85
2021/05/15 10:33:46;;;;;;;52.22;50.22;;;31.80;32.10;;;;;;5010088;28;86720;-85
2021/05/15 10:36:23;;;;;;;91.72;88.18;;;33.10;30.90;;;;;;5002875;28;83747;-85
2021/05/15 10:38:54;;;;;;;102.78;98.88;;;32.60;29.70;;;;;;5003496;28;82079;-85
2021/05/15 10:41:28;;;;;;;98.07;94.38;;;32.50;30.80;;;;;;4999486;28;81977;-86
2021/05/15 10:43:56;;;;;;;95.80;92.13;;;33.40;30.50;;;;;;5003209;28;82551;-85
2021/05/15 10:46:28;;;;;;;91.35;87.85;;;33.10;30.00;;;;;;5005911;28;83107;-85
2021/05/15 10:49:04;;;;;;;81.13;77.97;;;33.30;29.50;;;;;;5019956;28;81906;-86
2021/05/15 10:51:37;;;;;;;76.35;73.38;;;34.50;29.20;;;;;;5007209;28;82259;-86
2021/05/15 10:54:05;;;;;;;74.25;71.43;;;36.10;29.20;;;;;;5005059;28;83420;-86
2021/05/15 10:56:31;;;;;;;88.45;85.00;;;37.50;27.40;;;;;;5010114;28;82579;-87
2021/05/15 10:59:17;;;;;;;91.93;88.45;;;37.60;27.50;;;;;;4996157;28;85097;-87
2021/05/15 11:01:46;;;;;;;96.38;92.63;;;37.60;27.40;;;;;;5001930;28;82702;-86
2021/05/15 11:04:33;;;;;;;85.10;81.82;;;36.80;28.00;;;;;;4998918;28;84044;-86
2021/05/15 11:07:10;;;;;;;80.07;77.05;;;36.50;27.90;;;;;;5002343;28;84309;-86
2021/05/15 11:09:54;;;;;;;82.25;79.10;;;35.90;28.30;;;;;;5010974;28;83270;-86
2021/05/15 11:12:21;;;;;;;59.67;57.30;;;34.80;27.70;;;;;;5005001;28;83085;-86
2021/05/15 11:20:19;;;;;;;72.78;70.00;;;31.30;29.50;;;;;;5224442;22;83061;-86
2021/05/15 11:22:50;;;;;;;108.25;104.15;;;29.80;30.30;;;;;;5055384;22;84835;-86
2021/05/15 11:25:18;;;;;;;78.40;75.40;;;29.70;30.80;;;;;;4990596;28;84654;-84
2021/05/15 11:30:44;;;;;;;179.75;173.07;;;28.10;31.60;;;;;;5014487;22;83130;-85
2021/05/15 11:33:16;;;;;;;177.38;171.00;;;28.10;32.80;;;;;;5002122;28;84878;-86
2021/05/15 11:35:42;;;;;;;158.52;152.23;;;;;;;;;;4999209;28;85054;-86
2021/05/15 11:38:18;;;;;;;167.95;161.68;;;30.00;31.40;;;;;;4997106;28;86244;-86
2021/05/15 11:40:44;;;;;;;81.40;78.30;;;30.00;31.80;;;;;;5002417;28;85319;-84
2021/05/15 11:43:11;;;;;;;75.47;72.55;;;31.00;31.30;;;;;;5000968;28;83947;-86
2021/05/15 11:45:37;;;;;;;89.50;85.95;;;32.10;30.10;;;;;;5001222;28;82399;-85
2021/05/15 11:48:10;;;;;;;76.60;73.57;;;32.90;30.90;;;;;;4996826;28;82255;-85
2021/05/15 11:51:03;;;;;;;97.72;94.03;;;33.30;29.30;;;;;;4993352;28;84393;-86
2021/05/15 11:53:31;;;;;;;74.60;71.60;;;33.60;29.50;;;;;;5008659;28;81777;-84
2021/05/15 11:55:57;;;;;;;63.47;60.95;;;34.20;28.60;;;;;;5008238;28;82052;-85
2021/05/15 11:58:23;;;;;;;83.43;80.07;;;34.50;28.80;;;;;;5001615;28;82260;-86
2021/05/15 12:00:49;;;;;;;64.55;62.05;;;35.40;28.90;;;;;;4995652;28;81798;-86
2021/05/15 12:03:23;;;;;;;79.22;76.03;;;35.40;28.10;;;;;;4980106;28;82000;-86
2021/05/15 12:05:50;;;;;;;58.35;56.05;;;34.90;28.10;;;;;;4979164;28;82836;-85
2021/05/15 12:08:17;;;;;;;64.10;61.67;;;32.90;27.80;;;;;;4986092;28;83015;-85
2021/05/15 12:10:43;;;;;;;62.80;60.28;;;32.70;28.40;;;;;;4988364;28;83013;-86
2021/05/15 12:13:11;;;;;;;63.03;60.58;;;31.90;29.00;;;;;;4980023;28;82494;-86
2021/05/15 12:15:39;;;;;;;132.32;127.15;;;29.70;29.90;;;;;;4982339;28;82743;-85
2021/05/15 12:18:06;;;;;;;57.30;55.10;;;29.60;30.30;;;;;;4977325;28;84981;-86
2021/05/15 12:20:44;;;;;;;80.07;76.97;;;28.70;31.30;;;;;;4980970;28;81834;-86
2021/05/15 12:23:20;;;;;;;140.02;134.77;;;27.90;31.70;;;;;;4978847;28;82062;-84
2021/05/15 12:26:05;;;;;;;117.82;113.28;;;26.60;32.60;;;;;;4984195;28;85285;-85
2021/05/15 12:28:33;;;;;;;189.60;182.57;;;26.10;33.60;;;;;;4982175;28;85369;-83
2021/05/15 12:31:01;;;;;;;120.75;116.15;;;25.50;33.70;;;;;;4977342;28;84589;-83
2021/05/15 12:33:28;;;;;;;153.93;148.18;;;24.80;34.70;;;;;;4984489;28;84580;-85
2021/05/15 12:36:03;;;;;;;124.60;119.95;;;24.30;35.90;;;;;;4974325;28;84849;-84
2021/05/15 12:38:30;;;;;;;88.60;85.22;;;23.90;36.40;;;;;;4976893;28;84919;-85
2021/05/15 12:41:08;;;;;;;121.07;116.55;;;23.50;37.00;;;;;;4983744;28;82482;-86
2021/05/15 12:46:25;;;;;;;33.05;31.48;;;22.90;37.60;;;;;;4070129;26;82766;-86
2021/05/15 12:48:56;;;;;;;32.42;31.02;;;23.00;38.00;;;;;;4981623;28;82014;-87
2021/05/15 12:51:32;;;;;;;121.70;117.18;;;22.80;38.50;;;;;;4978639;28;82472;-83
2021/05/15 12:54:10;;;;;;;27.13;26.13;;;22.50;39.80;;;;;;4982503;28;84430;-83
2021/05/15 12:56:36;;;;;;;28.45;27.35;;;22.00;39.70;;;;;;4983874;28;82758;-86
2021/05/15 12:59:02;;;;;;;28.25;27.08;;;21.90;41.00;;;;;;4978897;28;82535;-85
2021/05/15 13:01:28;;;;;;;25.30;24.30;;;22.00;40.90;;;;;;4986611;28;81830;-85
2021/05/15 13:03:55;;;;;;;70.03;67.40;;;22.00;41.40;;;;;;4984999;28;82663;-81
2021/05/15 13:06:22;;;;;;;32.83;31.33;;;21.80;41.10;;;;;;4983065;28;82886;-86
2021/05/15 13:08:57;;;;;;;30.92;29.73;;;21.60;40.30;;;;;;4983413;28;82775;-83
2021/05/15 13:11:23;;;;;;;17.73;17.02;;;21.10;41.70;;;;;;4979244;28;82347;-86
2021/05/15 13:13:50;;;;;;;15.90;15.27;;;21.50;41.90;;;;;;4979116;28;82353;-87
2021/05/15 13:16:17;;;;;;;14.23;13.65;;;21.50;42.40;;;;;;4985201;28;83267;-86
2021/05/15 13:18:44;;;;;;;14.48;13.98;;;21.50;43.70;;;;;;4985519;28;82626;-84
2021/05/15 13:21:12;;;;;;;16.67;15.98;;;20.90;43.20;;;;;;4981525;28;82251;-86
2021/05/15 13:23:38;;;;;;;7.65;7.25;;;20.80;43.90;;;;;;4981683;28;82380;-86
2021/05/15 13:26:05;;;;;;;8.40;8.10;;;20.80;43.90;;;;;;4986724;28;82330;-89
2021/05/15 13:28:37;;;;;;;7.28;6.93;;;20.70;43.50;;;;;;4987269;28;81705;-85
2021/05/15 13:31:05;;;;;;;6.90;6.60;;;20.70;43.90;;;;;;4987177;28;81715;-89
2021/05/15 13:33:31;;;;;;;7.18;6.88;;;20.50;42.30;;;;;;4985539;28;83575;-88
2021/05/15 13:35:57;;;;;;;6.95;6.50;;;20.50;42.40;;;;;;4984040;28;82256;-88
2021/05/15 13:38:22;;;;;;;7.00;6.60;;;20.40;41.70;;;;;;4983421;28;81224;-88
2021/05/15 13:40:48;;;;;;;10.13;9.63;;;20.60;42.00;;;;;;4984527;28;81576;-88
2021/05/15 13:43:14;;;;;;;10.07;9.48;;;;;;;;;;4984441;28;84411;-86
2021/05/15 13:45:40;;;;;;;11.65;11.15;;;20.40;42.20;;;;;;4983458;28;82194;-86
2021/05/15 13:48:06;;;;;;;11.10;10.70;;;21.00;43.20;;;;;;4980992;28;82961;-88
2021/05/15 13:50:33;;;;;;;11.45;10.88;;;20.90;42.80;;;;;;4986604;28;82199;-85
2021/05/15 13:52:59;;;;;;;8.40;8.00;;;;;;;;;;4978206;28;82470;-86
2021/05/15 13:55:25;;;;;;;6.97;6.57;;;20.60;43.60;;;;;;4988489;28;81195;-84
2021/05/15 13:57:51;;;;;;;6.20;5.90;;;20.30;43.70;;;;;;4989594;28;82884;-86
2021/05/15 14:00:17;;;;;;;6.65;6.35;;;20.40;43.70;;;;;;4990015;28;81324;-86
2021/05/15 14:02:43;;;;;;;9.13;8.73;;;20.40;44.20;;;;;;4990702;28;82145;-85
2021/05/15 14:05:11;;;;;;;10.68;10.18;;;20.10;43.90;;;;;;4990297;28;82401;-84
2021/05/15 14:07:38;;;;;;;8.63;8.23;;;19.90;44.20;;;;;;4988082;28;81917;-85
2021/05/15 14:10:06;;;;;;;10.43;9.93;;;19.80;44.90;;;;;;4993125;28;81718;-86
2021/05/15 14:12:32;;;;;;;7.90;7.50;;;19.80;45.10;;;;;;4990851;28;82658;-87
2021/05/15 14:14:59;;;;;;;9.00;8.60;;;19.30;45.00;;;;;;4989836;28;82042;-87
2021/05/15 14:17:26;;;;;;;7.70;7.40;;;19.60;45.70;;;;;;4993130;28;81180;-85
2021/05/15 14:19:52;;;;;;;6.90;6.60;;;;;;;;;;4990404;28;82137;-85
2021/05/15 14:22:18;;;;;;;6.25;6.00;;;19.60;48.00;;;;;;4987897;28;83413;-86
2021/05/15 14:24:43;;;;;;;5.85;5.63;;;19.40;47.00;;;;;;4990223;28;82718;-86
2021/05/15 14:27:09;;;;;;;6.13;5.93;;;;;;;;;;4977525;28;81132;-86
2021/05/15 14:29:35;;;;;;;6.10;5.90;;;19.20;45.70;;;;;;4990904;28;82211;-86
2021/05/15 14:32:01;;;;;;;5.80;5.60;;;;;;;;;;4997844;28;82766;-88
2021/05/15 14:34:27;;;;;;;6.10;5.80;;;18.50;45.00;;;;;;4990617;28;82005;-88
2021/05/15 14:36:53;;;;;;;5.10;4.80;;;19.20;45.80;;;;;;4990031;28;81899;-86
2021/05/15 14:39:22;;;;;;;6.47;6.28;;;18.30;45.40;;;;;;4989302;28;81484;-85
2021/05/15 14:41:48;;;;;;;9.05;8.65;;;18.80;46.70;;;;;;4992023;28;82335;-87
2021/05/15 14:44:15;;;;;;;7.63;7.32;;;18.20;48.30;;;;;;4990291;28;81808;-87
2021/05/15 14:46:41;;;;;;;7.93;7.63;;;18.50;47.00;;;;;;4988482;28;82710;-86
2021/05/15 14:49:06;;;;;;;8.45;8.05;;;18.70;47.90;;;;;;4990364;28;81827;-87
2021/05/15 14:51:32;;;;;;;6.95;6.65;;;18.50;50.10;;;;;;4990840;28;82156;-87
2021/05/15 14:53:58;;;;;;;9.07;8.60;;;18.20;49.90;;;;;;4988688;28;81820;-84
2021/05/15 14:56:24;;;;;;;12.45;11.82;;;18.30;49.00;;;;;;4991098;28;81108;-87
2021/05/15 14:58:50;;;;;;;8.77;8.43;;;18.40;51.80;;;;;;4998257;28;81771;-87
2021/05/15 15:01:15;;;;;;;10.10;9.40;;;18.10;52.90;;;;;;4989955;28;81386;-85
2021/05/15 15:03:43;;;;;;;6.97;6.68;;;18.10;52.80;;;;;;4990252;28;81197;-86
2021/05/15 15:06:10;;;;;;;9.63;9.23;;;18.70;53.30;;;;;;4983918;28;81597;-83
2021/05/15 15:08:36;;;;;;;10.13;9.65;;;17.90;53.30;;;;;;4987311;28;81289;-84
2021/05/15 15:11:02;;;;;;;13.05;12.45;;;17.70;54.90;;;;;;4995065;28;86020;-84
2021/05/15 15:13:28;;;;;;;15.60;14.90;;;18.00;55.50;;;;;;4977261;28;83888;-86
2021/05/15 15:15:54;;;;;;;15.70;15.00;;;;;;;;;;4989378;28;82536;-85
2021/05/15 15:18:20;;;;;;;12.05;11.48;;;18.00;58.30;;;;;;4990396;28;81962;-84
2021/05/15 15:20:47;;;;;;;11.98;11.48;;;17.30;59.30;;;;;;4987200;28;82501;-84
2021/05/15 15:23:17;;;;;;;11.10;10.50;;;;;;;;;;4982693;28;85578;-83
2021/05/15 15:25:44;;;;;;;8.27;7.88;;;17.30;57.80;;;;;;4971410;28;82343;-84
2021/05/15 15:28:09;;;;;;;8.35;7.95;;;16.90;62.10;;;;;;4988258;28;83155;-87
2021/05/15 15:30:35;;;;;;;8.27;7.88;;;;;;;;;;4988738;28;82611;-83
2021/05/15 15:33:01;;;;;;;7.30;7.00;;;;;;;;;;4987348;28;82210;-85
2021/05/15 15:35:27;;;;;;;6.85;6.35;;;16.60;63.40;;;;;;5003787;28;82058;-84
2021/05/15 15:37:53;;;;;;;7.25;6.82;;;16.40;63.90;;;;;;4988458;28;81523;-84
2021/05/15 15:40:20;;;;;;;9.45;9.10;;;16.90;65.10;;;;;;4987630;28;82041;-86
2021/05/15 15:42:46;;;;;;;11.00;10.48;;;16.30;65.40;;;;;;4982418;28;81609;-86
2021/05/15 15:45:13;;;;;;;10.60;9.95;;;17.20;66.10;;;;;;4984946;28;81778;-83
2021/05/15 15:47:39;;;;;;;10.88;10.38;;;16.60;66.10;;;;;;4987267;28;81821;-86
2021/05/15 15:50:06;;;;;;;12.10;11.60;;;16.90;71.00;;;;;;4990890;28;81989;-86
2021/05/15 15:52:32;;;;;;;9.82;9.43;;;15.90;67.30;;;;;;4986267;28;85915;-85
2021/05/15 15:55:01;;;;;;;10.85;10.35;;;16.50;69.60;;;;;;4983366;28;82486;-85
2021/05/15 15:57:27;;;;;;;10.25;9.63;;;;;;;;;;4987058;28;81952;-86
2021/05/15 15:59:53;;;;;;;7.18;6.78;;;16.10;70.20;;;;;;4987601;28;82552;-85